Time;durP1;ratioP1;P1;durP2;ratioP2;P2;SDS_P1;SDS_P2;PMS_P1;PMS_P2;Temp;Humidity;BMP_temperature;BMP_pressure;BME280_temperature;BME280_humidity;BME280_pressure;Samples;Min_cycle;Max_cycle;Signal;HPM_P1;HPM_P2
2022/08/27 00:01:23;;;;;;;4.22;1.70;;;;;;;20.69;61.20;101127.63;5055398;28;20048;-62
2022/08/27 00:03:52;;;;;;;4.15;1.90;;;;;;;20.86;60.97;101123.53;5057738;28;20053;-64
2022/08/27 00:06:20;;;;;;;5.95;1.70;;;;;;;20.79;60.70;101126.19;5076326;28;20053;-64
2022/08/27 00:08:48;;;;;;;7.18;1.73;;;;;;;20.70;61.51;101132.03;5055516;28;20053;-63
2022/08/27 00:11:18;;;;;;;6.53;2.35;;;;;;;20.45;61.47;101127.94;5054182;28;20048;-63
2022/08/27 00:13:45;;;;;;;6.80;2.30;;;;;;;20.50;61.82;101124.88;5055505;28;20053;-63
2022/08/27 00:16:14;;;;;;;7.45;1.95;;;;;;;20.63;61.38;101129.09;5037352;28;20496;-64
2022/08/27 00:18:44;;;;;;;10.23;1.90;;;;;;;20.57;62.06;101127.81;5055760;28;20048;-63
2022/08/27 00:21:16;;;;;;;5.80;2.03;;;;;;;20.58;61.79;101123.81;5037091;28;20064;-62
2022/08/27 00:23:43;;;;;;;7.60;2.15;;;;;;;20.75;61.41;101125.31;5066580;28;20056;-63
2022/08/27 00:26:11;;;;;;;8.07;2.08;;;;;;;20.84;60.83;101121.09;5055975;28;20048;-62
2022/08/27 00:28:39;;;;;;;7.07;1.90;;;;;;;20.79;60.65;101115.81;5057181;28;20043;-63
2022/08/27 00:31:07;;;;;;;5.82;1.90;;;;;;;20.77;61.30;101117.34;5074825;28;20059;-63
2022/08/27 00:33:39;;;;;;;7.03;1.70;;;;;;;20.71;61.64;101118.84;5074821;28;20067;-62
2022/08/27 00:36:07;;;;;;;5.93;2.20;;;;;;;20.83;60.73;101116.69;5073792;28;20407;-62
2022/08/27 00:38:35;;;;;;;7.10;1.92;;;;;;;20.94;60.44;101116.84;5075345;28;20045;-63
2022/08/27 00:41:02;;;;;;;9.45;2.25;;;;;;;20.84;60.64;101120.28;5057004;28;20403;-62
2022/08/27 00:43:41;;;;;;;7.43;1.90;;;;;;;21.25;59.83;101120.22;5074609;28;20063;-62
2022/08/27 00:46:18;;;;;;;6.15;2.00;;;;;;;20.79;60.37;101123.41;5074186;28;20075;-63
2022/08/27 00:48:46;;;;;;;5.55;2.00;;;;;;;20.59;61.44;101122.63;5057096;28;20047;-63
2022/08/27 00:51:14;;;;;;;10.43;2.20;;;;;;;20.42;61.95;101136.25;5074245;28;20420;-63
2022/08/27 00:53:41;;;;;;;6.13;2.10;;;;;;;20.45;62.57;101122.34;5074839;28;20048;-63
2022/08/27 00:56:14;;;;;;;10.15;2.40;;;;;;;20.47;62.24;101116.41;5055701;28;20048;-65
2022/08/27 00:58:45;;;;;;;5.13;1.80;;;;;;;20.39;62.63;101120.22;5057102;28;20056;-63
2022/08/27 01:01:15;;;;;;;11.15;1.95;;;;;;;20.59;62.01;101117.03;5074423;28;20056;-64
2022/08/27 01:03:46;;;;;;;7.10;2.00;;;;;;;20.65;61.70;101112.75;5074668;28;20048;-64
2022/08/27 01:06:13;;;;;;;;;;;;;;;20.53;61.71;101117.72;5054611;28;20064;-62
2022/08/27 01:08:56;;;;;;;8.82;2.30;;;;;;;20.60;61.71;101115.84;5054472;28;19954;-62
2022/08/27 01:11:24;;;;;;;9.27;2.60;;;;;;;20.70;61.49;101118.03;5036444;28;20053;-63
2022/08/27 01:13:52;;;;;;;6.70;1.92;;;;;;;20.75;61.33;101125.31;5054363;28;20045;-62
2022/08/27 01:16:31;;;;;;;6.38;2.03;;;;;;;20.63;61.13;101123.50;5053354;28;20068;-63
2022/08/27 01:18:59;;;;;;;7.10;2.13;;;;;;;20.60;61.65;101121.47;5037069;28;20041;-63
2022/08/27 01:21:32;;;;;;;6.93;1.92;;;;;;;20.60;61.52;101120.63;5053217;28;20052;-63
2022/08/27 01:24:03;;;;;;;11.40;2.22;;;;;;;20.52;61.88;101122.47;5050263;28;20060;-63
2022/08/27 01:26:31;;;;;;;6.57;2.03;;;;;;;20.62;61.82;101121.91;5074094;28;20052;-63
2022/08/27 01:28:58;;;;;;;5.47;1.80;;;;;;;20.47;62.05;101114.38;5074136;28;20041;-63
2022/08/27 01:31:26;;;;;;;8.95;2.42;;;;;;;20.38;62.33;101119.41;5062430;28;20052;-62
2022/08/27 01:33:56;;;;;;;5.93;1.90;;;;;;;20.27;62.77;101124.00;5054285;28;20053;-63
2022/08/27 01:36:23;;;;;;;6.97;2.10;;;;;;;20.25;63.29;101115.16;5036033;28;20052;-66
2022/08/27 01:38:50;;;;;;;6.03;1.75;;;;;;;20.18;63.44;101117.81;5054539;28;20052;-66
2022/08/27 01:41:19;;;;;;;12.52;2.10;;;;;;;20.23;63.06;101125.91;5036396;28;20053;-66
2022/08/27 01:43:47;;;;;;;8.45;2.13;;;;;;;20.29;63.11;101112.44;5054260;28;20053;-65
2022/08/27 01:46:20;;;;;;;7.00;1.77;;;;;;;20.34;63.10;101107.34;5053837;28;20059;-65
2022/08/27 01:48:47;;;;;;;6.97;1.92;;;;;;;20.29;62.82;101109.63;5054191;28;20060;-65
2022/08/27 01:51:15;;;;;;;4.80;1.80;;;;;;;20.32;62.39;101106.09;5053193;28;20064;-65
2022/08/27 01:53:42;;;;;;;8.95;2.08;;;;;;;20.45;62.38;101108.34;5054228;28;20068;-65
2022/08/27 01:56:10;;;;;;;5.97;1.83;;;;;;;20.15;63.13;101110.91;5053614;28;20060;-65
2022/08/27 01:58:38;;;;;;;7.22;2.00;;;;;;;20.25;62.70;101101.16;5054106;28;20052;-65
2022/08/27 02:01:09;;;;;;;5.13;1.90;;;;;;;20.48;62.02;101093.63;5053936;28;20057;-65
2022/08/27 02:03:38;;;;;;;8.40;1.88;;;;;;;20.59;62.37;101102.25;5036561;28;20060;-64
2022/08/27 02:06:10;;;;;;;6.68;1.70;;;;;;;20.33;62.40;101100.13;5060016;28;20057;-65
2022/08/27 02:08:38;;;;;;;4.55;1.50;;;;;;;20.37;62.75;101097.41;5054010;28;20052;-65
2022/08/27 02:11:07;;;;;;;6.28;1.70;;;;;;;20.34;62.86;101103.75;5053567;28;20056;-66
2022/08/27 02:13:34;;;;;;;6.30;1.73;;;;;;;20.49;62.54;101109.25;5053897;28;20052;-65
2022/08/27 02:16:02;;;;;;;8.10;2.20;;;;;;;20.53;62.42;101095.31;5053331;28;20057;-65
2022/08/27 02:18:30;;;;;;;7.97;1.92;;;;;;;20.55;61.82;101107.78;5053822;28;20049;-66
2022/08/27 02:20:57;;;;;;;7.93;2.30;;;;;;;20.54;62.07;101110.94;5053517;28;20056;-63
2022/08/27 02:23:25;;;;;;;7.78;2.05;;;;;;;20.50;62.25;101110.06;5044966;28;20056;-63
2022/08/27 02:25:52;;;;;;;5.47;1.77;;;;;;;20.34;62.36;101110.16;5063232;28;20064;-63
2022/08/27 02:28:20;;;;;;;12.55;2.33;;;;;;;20.31;62.33;101105.28;5055238;28;20428;-63
2022/08/27 02:30:47;;;;;;;8.77;2.00;;;;;;;20.40;62.19;101108.66;5056437;28;20060;-65
2022/08/27 02:33:15;;;;;;;5.45;1.83;;;;;;;20.46;62.18;101100.78;5057574;28;20720;-66
2022/08/27 02:35:43;;;;;;;4.88;1.63;;;;;;;20.31;62.77;101105.28;5057103;28;20399;-62
2022/08/27 02:38:12;;;;;;;5.40;2.25;;;;;;;20.25;63.24;101101.16;5057750;28;20048;-62
2022/08/27 02:40:40;;;;;;;6.95;1.88;;;;;;;20.33;62.52;101102.91;5057118;28;20052;-64
2022/08/27 02:43:07;;;;;;;12.48;2.25;;;;;;;20.27;63.07;101103.59;5038801;28;20415;-62
2022/08/27 02:45:36;;;;;;;7.20;2.00;;;;;;;20.33;62.56;101096.53;5056526;28;20060;-62
2022/08/27 02:48:04;;;;;;;4.50;1.95;;;;;;;20.33;62.49;101107.72;5057481;28;20044;-62
2022/08/27 02:50:32;;;;;;;7.63;2.47;;;;;;;20.22;62.90;101106.69;5059896;28;20701;-62
2022/08/27 02:53:01;;;;;;;9.48;1.98;;;;;;;20.19;63.12;101107.44;5058980;28;20040;-62
2022/08/27 02:55:29;;;;;;;8.13;2.25;;;;;;;20.18;63.07;101103.81;5076695;28;20056;-62
2022/08/27 02:57:56;;;;;;;5.82;1.92;;;;;;;20.05;63.76;101102.31;5077010;28;20056;-63
2022/08/27 03:00:24;;;;;;;8.95;2.00;;;;;;;20.05;63.83;101096.72;5076589;28;20487;-63
2022/08/27 03:02:52;;;;;;;11.93;2.25;;;;;;;19.89;64.10;101098.78;5076526;28;20067;-63
2022/08/27 03:05:19;;;;;;;8.77;2.13;;;;;;;19.84;64.50;101096.28;5087467;28;20056;-62
2022/08/27 03:07:48;;;;;;;9.18;1.95;;;;;;;19.89;64.99;101087.59;5056807;28;20539;-65
2022/08/27 03:10:18;;;;;;;6.57;2.30;;;;;;;19.95;64.40;101097.31;5038226;28;20045;-64
2022/08/27 03:12:46;;;;;;;8.43;1.80;;;;;;;19.97;63.92;101084.59;5038456;28;20045;-65
2022/08/27 03:15:16;;;;;;;7.13;1.90;;;;;;;20.04;64.55;101092.31;5056265;28;20057;-66
2022/08/27 03:20:30;;;;;;;6.40;1.70;;;;;;;20.02;63.47;101095.47;5055955;28;20079;-65
2022/08/27 03:22:59;;;;;;;5.75;2.20;;;;;;;20.15;63.29;101088.53;5061509;28;20049;-66
2022/08/27 03:25:26;;;;;;;9.27;2.00;;;;;;;19.88;63.72;101092.38;5058231;28;20060;-65
2022/08/27 03:27:54;;;;;;;6.82;1.92;;;;;;;19.84;64.88;101088.69;5076069;28;20059;-64
2022/08/27 03:30:22;;;;;;;5.28;1.75;;;;;;;19.94;64.84;101088.13;5076019;28;20435;-62
2022/08/27 03:32:49;;;;;;;11.50;2.20;;;;;;;19.80;64.43;101084.22;5076394;28;20049;-63
2022/08/27 03:35:18;;;;;;;7.20;1.88;;;;;;;19.74;64.91;101072.50;5058313;28;20049;-65
2022/08/27 03:37:46;;;;;;;15.63;2.00;;;;;;;19.68;65.67;101079.53;5057654;28;20059;-66
2022/08/27 03:40:14;;;;;;;8.55;2.13;;;;;;;19.88;64.63;101077.59;5075736;28;20032;-66
2022/08/27 03:42:42;;;;;;;5.50;1.95;;;;;;;19.93;64.11;101083.69;5076145;28;20052;-65
2022/08/27 03:45:10;;;;;;;8.98;1.90;;;;;;;19.90;64.47;101081.66;5076209;28;20059;-67
2022/08/27 03:47:37;;;;;;;8.18;1.90;;;;;;;19.86;64.40;101080.75;5076123;28;20545;-67
2022/08/27 03:50:06;;;;;;;6.63;2.08;;;;;;;19.92;64.61;101082.09;5075865;28;20063;-66
2022/08/27 03:52:34;;;;;;;6.40;2.10;;;;;;;19.83;64.03;101078.69;5075489;28;20055;-66
2022/08/27 03:55:03;;;;;;;7.32;2.20;;;;;;;19.71;64.76;101076.03;5076055;28;20511;-66
2022/08/27 03:57:31;;;;;;;9.80;1.95;;;;;;;19.55;65.23;101072.47;5005192;28;20064;-63
2022/08/27 03:59:59;;;;;;;9.02;2.17;;;;;;;19.62;65.33;101075.44;5055504;28;20049;-63
2022/08/27 04:02:27;;;;;;;13.13;2.53;;;;;;;19.75;65.21;101076.91;5055311;28;20057;-63
2022/08/27 04:04:56;;;;;;;9.40;2.75;;;;;;;19.50;65.43;101086.72;5075452;28;20052;-63
2022/08/27 04:07:23;;;;;;;6.13;1.88;;;;;;;19.60;65.74;101082.53;5058196;28;20048;-63
2022/08/27 04:09:51;;;;;;;8.63;2.30;;;;;;;19.43;65.85;101077.38;5055880;28;20045;-63
2022/08/27 04:12:18;;;;;;;7.93;1.98;;;;;;;19.56;65.61;101073.28;5054948;28;20045;-63
2022/08/27 04:14:45;;;;;;;9.25;2.20;;;;;;;19.61;65.78;101076.63;5037695;28;20045;-63
2022/08/27 04:17:13;;;;;;;8.88;2.20;;;;;;;19.60;65.31;101072.19;5055162;28;20514;-63
2022/08/27 04:19:40;;;;;;;6.40;2.75;;;;;;;19.60;65.61;101072.19;5037973;28;20045;-63
2022/08/27 04:22:07;;;;;;;5.75;2.03;;;;;;;19.81;64.94;101069.03;5055210;28;20057;-65
2022/08/27 04:24:36;;;;;;;6.13;1.80;;;;;;;19.46;65.56;101068.25;5073791;28;20053;-66
2022/08/27 04:27:04;;;;;;;7.93;2.17;;;;;;;19.29;67.05;101075.03;5075042;28;20052;-66
2022/08/27 04:29:32;;;;;;;6.50;2.10;;;;;;;19.32;66.22;101071.53;5057491;28;20059;-65
2022/08/27 04:32:00;;;;;;;8.27;2.22;;;;;;;19.19;66.49;101072.81;5057191;28;20056;-65
2022/08/27 04:34:29;;;;;;;6.47;1.98;;;;;;;19.13;66.89;101070.63;5075218;28;20048;-65
2022/08/27 04:36:57;;;;;;;8.15;2.10;;;;;;;19.17;66.71;101074.31;5074688;28;20431;-66
2022/08/27 04:39:26;;;;;;;7.38;2.13;;;;;;;19.20;66.86;101071.63;5041062;28;20048;-66
2022/08/27 04:41:55;;;;;;;6.30;2.47;;;;;;;19.21;66.47;101072.44;5074882;28;20048;-66
2022/08/27 04:44:27;;;;;;;10.07;2.58;;;;;;;19.26;66.54;101063.78;5075106;28;20052;-66
2022/08/27 04:46:57;;;;;;;9.50;2.50;;;;;;;19.37;66.49;101068.47;5074374;28;20063;-66
2022/08/27 04:49:25;;;;;;;;;;;;;;;19.44;65.99;101071.41;5075092;28;20061;-66
2022/08/27 04:51:53;;;;;;;7.95;2.67;;;;;;;19.36;65.80;101074.41;5073876;28;19927;-65
2022/08/27 04:54:22;;;;;;;9.00;2.25;;;;;;;19.36;65.05;101066.03;5057083;28;20044;-66
2022/08/27 04:57:03;;;;;;;8.88;2.53;;;;;;;18.91;67.40;101069.31;5073770;28;20073;-66
2022/08/27 04:59:31;;;;;;;7.90;2.33;;;;;;;19.04;67.04;101063.25;5074726;28;20044;-65
2022/08/27 05:02:00;;;;;;;7.43;2.53;;;;;;;19.03;66.83;101066.41;5074085;28;20412;-65
2022/08/27 05:04:31;;;;;;;11.98;2.92;;;;;;;19.07;66.79;101070.13;5080550;28;20422;-65
2022/08/27 05:07:00;;;;;;;13.23;2.75;;;;;;;19.07;66.54;101068.13;5046825;28;20045;-66
2022/08/27 05:09:28;;;;;;;;;;;;;;;18.97;66.95;101071.47;5055145;28;20103;-65
2022/08/27 05:11:55;;;;;;;9.20;2.40;;;;;;;19.05;67.64;101072.47;5054355;28;19921;-65
2022/08/27 05:14:28;;;;;;;9.80;2.55;;;;;;;19.26;66.78;101067.38;5053831;28;20060;-66
2022/08/27 05:16:56;;;;;;;8.98;2.80;;;;;;;19.33;66.24;101080.75;5053766;28;20511;-66
2022/08/27 05:19:24;;;;;;;11.75;2.50;;;;;;;19.38;65.90;101081.28;5054599;28;20068;-66
2022/08/27 05:21:52;;;;;;;10.15;2.58;;;;;;;19.25;67.17;101078.94;5035522;28;20083;-65
2022/08/27 05:24:20;;;;;;;10.60;2.30;;;;;;;19.40;65.66;101087.31;5070679;28;20055;-65
2022/08/27 05:26:48;;;;;;;9.70;2.40;;;;;;;19.04;66.80;101095.94;5074346;28;20063;-66
2022/08/27 05:29:16;;;;;;;8.45;2.60;;;;;;;19.09;66.34;101095.69;5074577;28;20503;-66
2022/08/27 05:31:43;;;;;;;8.50;2.83;;;;;;;18.81;67.35;101090.19;5074233;28;20040;-66
2022/08/27 05:34:10;;;;;;;7.75;2.53;;;;;;;18.81;68.06;101103.34;5074419;28;20048;-65
2022/08/27 05:36:51;;;;;;;8.35;2.75;;;;;;;18.67;67.96;101098.19;5073676;28;20063;-65
2022/08/27 05:39:19;;;;;;;9.32;2.90;;;;;;;19.00;67.93;101100.66;5074545;28;20045;-65
2022/08/27 05:41:46;;;;;;;10.70;3.13;;;;;;;19.22;66.96;101101.97;5073944;28;20052;-65
2022/08/27 05:44:15;;;;;;;9.57;3.30;;;;;;;19.24;66.19;101100.44;5073618;28;20048;-65
2022/08/27 05:47:03;;;;;;;9.40;2.87;;;;;;;19.16;65.91;101107.03;5073520;28;20059;-65
2022/08/27 05:49:30;;;;;;;8.90;2.75;;;;;;;19.02;66.52;101103.91;5055939;28;20518;-65
2022/08/27 05:51:58;;;;;;;13.00;2.80;;;;;;;18.72;67.04;101117.47;5073718;28;20051;-66
2022/08/27 05:54:25;;;;;;;8.82;2.90;;;;;;;18.87;68.20;101116.69;5074299;28;20045;-66
2022/08/27 05:56:52;;;;;;;13.05;3.40;;;;;;;18.91;67.03;101100.03;5055113;28;20126;-66
2022/08/27 06:02:05;;;;;;;14.15;2.80;;;;;;;19.04;66.99;101096.78;5075028;28;20573;-66
2022/08/27 06:04:33;;;;;;;7.97;2.88;;;;;;;19.11;66.57;101093.34;5050511;28;20708;-66
2022/08/27 06:07:00;;;;;;;11.38;3.05;;;;;;;19.09;66.79;101095.69;5063772;28;20060;-66
2022/08/27 06:09:28;;;;;;;11.73;3.28;;;;;;;18.99;66.44;101094.25;5077905;28;20068;-66
2022/08/27 06:11:57;;;;;;;8.70;3.05;;;;;;;18.80;67.30;101091.38;5058974;28;20053;-65
2022/08/27 06:14:25;;;;;;;9.82;3.15;;;;;;;18.82;66.90;101105.78;5077617;28;20075;-67
2022/08/27 06:16:53;;;;;;;11.88;3.40;;;;;;;18.81;67.23;101109.72;5059395;28;20059;-66
2022/08/27 06:19:20;;;;;;;10.65;3.50;;;;;;;18.68;67.71;101099.00;5060033;28;20119;-66
2022/08/27 06:21:48;;;;;;;8.35;2.92;;;;;;;18.68;67.36;101105.41;5077304;28;20040;-66
2022/08/27 06:24:28;;;;;;;8.57;3.47;;;;;;;18.74;67.55;101101.16;5060345;28;20061;-65
2022/08/27 06:26:56;;;;;;;14.70;3.80;;;;;;;18.94;66.97;101104.88;5055835;28;20415;-66
2022/08/27 06:29:23;;;;;;;8.50;3.40;;;;;;;18.94;66.71;101102.09;5057595;28;20057;-65
2022/08/27 06:31:53;;;;;;;13.45;3.72;;;;;;;18.99;66.52;101104.59;5057319;28;20495;-63
2022/08/27 06:34:21;;;;;;;8.98;3.92;;;;;;;19.07;66.50;101100.84;5057492;28;20064;-63
2022/08/27 06:36:48;;;;;;;9.55;2.72;;;;;;;19.11;66.82;101106.50;5057050;28;20048;-63
2022/08/27 06:39:15;;;;;;;11.38;3.80;;;;;;;19.32;66.58;101104.28;5057424;28;20053;-63
2022/08/27 06:41:44;;;;;;;10.70;3.50;;;;;;;19.01;66.20;101105.06;5056921;28;20056;-64
2022/08/27 06:44:12;;;;;;;10.18;3.40;;;;;;;18.73;67.04;101116.31;5057254;28;20404;-64
2022/08/27 06:46:40;;;;;;;10.77;3.72;;;;;;;18.79;67.66;101111.28;5038147;28;20064;-62
2022/08/27 06:49:08;;;;;;;15.73;4.78;;;;;;;18.77;67.14;101113.59;5039424;28;20060;-63
2022/08/27 06:51:38;;;;;;;9.27;3.60;;;;;;;18.80;67.86;101115.66;5056751;28;20048;-64
2022/08/27 06:54:08;;;;;;;11.30;3.17;;;;;;;18.89;67.24;101116.31;5038765;28;20063;-65
2022/08/27 06:56:35;;;;;;;12.77;4.28;;;;;;;18.97;67.20;101118.09;5038026;28;20667;-64
2022/08/27 06:59:05;;;;;;;10.85;3.67;;;;;;;19.00;66.89;101126.56;5056940;28;20057;-63
2022/08/27 07:01:40;;;;;;;14.02;4.05;;;;;;;18.98;66.92;101123.34;5056695;28;20052;-63
2022/08/27 07:04:12;;;;;;;12.48;3.17;;;;;;;19.37;66.61;101126.34;5063953;28;20052;-64
2022/08/27 07:06:40;;;;;;;12.43;3.78;;;;;;;19.30;65.29;101131.72;5053693;28;20068;-64
2022/08/27 07:09:08;;;;;;;19.75;3.97;;;;;;;19.39;65.80;101130.38;5038945;28;20068;-64
2022/08/27 07:11:37;;;;;;;11.15;3.85;;;;;;;19.19;65.88;101136.22;5038779;28;20056;-65
2022/08/27 07:14:05;;;;;;;11.90;4.00;;;;;;;19.13;65.82;101132.88;5055308;28;20049;-65
2022/08/27 07:16:33;;;;;;;11.10;4.10;;;;;;;19.24;65.98;101124.78;5056148;28;20052;-66
2022/08/27 07:19:02;;;;;;;10.55;3.80;;;;;;;19.23;65.80;101135.13;5038963;28;20052;-66
2022/08/27 07:21:32;;;;;;;13.77;3.90;;;;;;;19.11;66.24;101135.22;5055831;28;20044;-67
2022/08/27 07:24:03;;;;;;;13.13;4.32;;;;;;;19.29;66.26;101135.66;5069749;28;20427;-62
2022/08/27 07:26:34;;;;;;;10.77;4.72;;;;;;;19.20;65.97;101135.84;5057285;28;20499;-63
2022/08/27 07:29:04;;;;;;;14.27;3.95;;;;;;;19.20;66.01;101144.22;5057212;28;20060;-62
2022/08/27 07:31:34;;;;;;;11.68;4.10;;;;;;;19.37;65.47;101135.50;5057467;28;20060;-63
2022/08/27 07:34:02;;;;;;;11.80;3.70;;;;;;;19.46;64.91;101136.13;5075805;28;20134;-63
2022/08/27 07:36:31;;;;;;;8.65;3.90;;;;;;;19.47;64.39;101146.16;5075484;28;20396;-66
2022/08/27 07:38:58;;;;;;;12.00;4.30;;;;;;;19.20;65.75;101144.22;5058483;28;20052;-64
2022/08/27 07:41:29;;;;;;;12.25;4.53;;;;;;;19.24;65.22;101139.56;5075540;28;20052;-63
2022/08/27 07:46:44;;;;;;;13.50;4.20;;;;;;;19.63;65.03;101141.31;5075603;28;19945;-66
2022/08/27 07:49:16;;;;;;;14.98;3.80;;;;;;;19.87;63.52;101141.09;5058041;28;20060;-64
2022/08/27 07:51:44;;;;;;;13.50;3.85;;;;;;;19.93;63.80;101145.22;5075320;28;20037;-63
2022/08/27 07:54:12;;;;;;;9.23;4.10;;;;;;;20.27;62.23;101139.97;5057366;28;20056;-64
2022/08/27 07:56:40;;;;;;;8.95;3.63;;;;;;;20.00;62.62;101148.16;5075156;28;20063;-64
2022/08/27 07:59:08;;;;;;;12.25;3.75;;;;;;;20.13;62.23;101148.84;5057843;28;20048;-64
2022/08/27 08:01:35;;;;;;;9.05;3.45;;;;;;;20.16;62.30;101145.34;5056776;28;20059;-66
2022/08/27 08:04:03;;;;;;;13.80;4.50;;;;;;;19.92;63.33;101154.78;5078336;28;20380;-66
2022/08/27 08:06:30;;;;;;;13.05;4.35;;;;;;;20.14;62.43;101139.25;5072528;28;20059;-66
2022/08/27 08:08:59;;;;;;;14.25;4.50;;;;;;;20.12;62.41;101150.81;5055512;28;20411;-66
2022/08/27 08:11:27;;;;;;;10.10;4.22;;;;;;;20.23;62.52;101147.47;5055277;28;20041;-66
2022/08/27 08:13:54;;;;;;;11.27;4.20;;;;;;;20.35;61.49;101148.13;5055467;28;20060;-66
2022/08/27 08:16:26;;;;;;;9.90;4.30;;;;;;;20.36;61.30;101141.38;5055116;28;20049;-67
2022/08/27 08:18:59;;;;;;;9.75;4.45;;;;;;;20.79;60.70;101148.59;5021044;28;20059;-66
2022/08/27 08:21:26;;;;;;;11.38;4.13;;;;;;;20.23;61.17;101156.69;5054790;28;20053;-66
2022/08/27 08:23:54;;;;;;;11.07;3.72;;;;;;;20.49;60.31;101156.00;5050093;28;20075;-66
2022/08/27 08:26:22;;;;;;;11.23;4.35;;;;;;;20.49;60.22;101161.59;5055586;28;20064;-66
2022/08/27 08:28:50;;;;;;;11.75;3.45;;;;;;;20.59;60.56;101147.81;5074662;28;20049;-66
2022/08/27 08:31:17;;;;;;;12.93;5.88;;;;;;;20.76;60.12;101160.56;5074888;28;20431;-67
2022/08/27 08:33:46;;;;;;;10.48;3.88;;;;;;;20.93;58.81;101148.84;5074548;28;20056;-66
2022/08/27 08:36:15;;;;;;;13.90;4.03;;;;;;;20.89;58.88;101143.19;5074466;28;20053;-67
2022/08/27 08:38:44;;;;;;;11.57;3.80;;;;;;;20.73;58.56;101158.50;5056996;28;20399;-66
2022/08/27 08:41:21;;;;;;;12.85;3.95;;;;;;;20.65;58.71;101151.94;5056189;28;20056;-63
2022/08/27 08:43:50;;;;;;;9.73;3.13;;;;;;;20.74;58.23;101148.91;5040622;28;20542;-63
2022/08/27 08:46:45;;;;;;;11.32;3.50;;;;;;;20.87;58.95;101144.75;5074200;28;20064;-64
2022/08/27 08:49:44;;;;;;;11.40;3.63;;;;;;;20.39;nan;101160.22;5057456;28;20067;-64
2022/08/27 08:52:28;;;;;;;8.77;3.10;;;;;;;20.54;60.27;101139.72;5074578;28;20040;-66
2022/08/27 08:55:01;;;;;;;10.60;3.10;;;;;;;20.69;57.93;101141.63;5040664;28;20064;-65
2022/08/27 08:57:34;;;;;;;18.33;4.03;;;;;;;20.83;58.32;101138.28;5074234;28;20407;-67
2022/08/27 09:00:11;;;;;;;9.60;3.60;;;;;;;20.74;57.43;101137.72;5057006;28;20495;-66
2022/08/27 09:02:40;;;;;;;7.55;2.58;;;;;;;20.67;57.63;101134.78;5074140;28;20040;-66
2022/08/27 09:05:08;;;;;;;11.10;3.20;;;;;;;20.74;57.54;101140.50;5068817;28;20054;-66
2022/08/27 09:07:45;;;;;;;10.82;2.92;;;;;;;20.98;56.46;101145.75;5054986;28;20302;-65
2022/08/27 09:10:17;;;;;;;8.73;2.47;;;;;;;21.27;55.15;101147.09;5054458;28;20459;-66
2022/08/27 09:12:45;;;;;;;7.38;2.60;;;;;;;21.31;54.78;101143.16;5053131;28;20049;-66
2022/08/27 09:15:18;;;;;;;8.82;2.53;;;;;;;21.47;54.05;101149.44;5053558;28;20049;-67
2022/08/27 09:17:47;;;;;;;8.02;2.85;;;;;;;21.48;54.19;101153.84;5036932;28;20049;-66
2022/08/27 09:20:18;;;;;;;9.40;2.67;;;;;;;21.25;53.74;101155.88;5054242;28;20061;-66
2022/08/27 09:22:57;;;;;;;9.23;2.42;;;;;;;21.17;54.67;101146.53;5053232;28;20044;-67
2022/08/27 09:25:28;;;;;;;6.57;2.42;;;;;;;21.37;52.51;101149.25;5053959;28;20056;-66
2022/08/27 09:27:59;;;;;;;7.50;2.28;;;;;;;20.97;53.13;101153.34;5036287;28;20064;-67
2022/08/27 09:30:29;;;;;;;10.63;3.00;;;;;;;21.09;53.51;101143.97;5054081;28;20053;-64
2022/08/27 09:33:03;;;;;;;9.02;2.53;;;;;;;21.21;53.06;101152.19;5036161;28;20057;-64
2022/08/27 09:35:40;;;;;;;9.80;3.00;;;;;;;21.31;53.17;101147.94;5054087;28;20064;-64
2022/08/27 09:38:08;;;;;;;8.32;2.63;;;;;;;21.37;52.79;101146.44;5040004;28;20488;-66
2022/08/27 09:40:47;;;;;;;10.55;2.95;;;;;;;21.29;52.96;101151.13;5058246;28;20052;-66
2022/08/27 09:43:14;;;;;;;8.35;2.17;;;;;;;21.38;53.35;101148.06;5057667;28;20376;-63
2022/08/27 09:45:58;;;;;;;11.82;2.60;;;;;;;21.67;51.14;101159.34;5040152;28;20529;-65
2022/08/27 09:48:28;;;;;;;9.98;3.13;;;;;;;21.42;52.46;101151.72;5040778;28;20049;-63
2022/08/27 09:51:01;;;;;;;10.32;2.92;;;;;;;20.89;53.63;101146.00;5058100;28;20052;-63
2022/08/27 09:53:38;;;;;;;8.48;3.10;;;;;;;21.18;53.22;101155.75;5058263;28;20048;-65
2022/08/27 09:56:07;;;;;;;8.85;2.42;;;;;;;21.55;52.69;101155.97;5040173;28;20053;-63
2022/08/27 09:58:58;;;;;;;9.63;2.95;;;;;;;21.75;52.88;101147.06;5040702;28;20057;-63
2022/08/27 10:01:28;;;;;;;9.35;2.95;;;;;;;21.95;50.55;101151.38;5057964;28;20142;-64
2022/08/27 10:04:26;;;;;;;7.20;2.63;;;;;;;21.49;48.61;101151.84;5061621;28;20045;-65
2022/08/27 10:06:53;;;;;;;7.35;2.38;;;;;;;21.56;48.36;101160.38;5033352;28;20053;-64
2022/08/27 10:09:34;;;;;;;9.27;2.40;;;;;;;21.39;48.91;101160.91;5040162;28;20061;-64
2022/08/27 10:12:06;;;;;;;8.23;2.22;;;;;;;21.32;46.89;101157.97;5039688;28;20060;-65
2022/08/27 10:14:39;;;;;;;6.80;2.45;;;;;;;21.42;47.68;101155.34;5039829;28;20057;-66
2022/08/27 10:17:10;;;;;;;7.50;2.55;;;;;;;21.78;48.38;101151.13;5039955;28;20059;-64
2022/08/27 10:19:56;;;;;;;10.63;2.45;;;;;;;22.00;48.05;101144.63;5040205;28;20518;-63
2022/08/27 10:22:30;;;;;;;7.85;2.67;;;;;;;22.28;47.51;101150.63;5057440;28;20045;-66
2022/08/27 10:25:01;;;;;;;7.10;2.30;;;;;;;22.29;47.53;101141.81;5077925;28;20411;-64
2022/08/27 10:27:48;;;;;;;8.77;2.25;;;;;;;22.32;47.10;101135.44;5076960;28;20048;-63
2022/08/27 10:30:19;;;;;;;6.95;2.03;;;;;;;22.05;45.52;101142.31;5077384;28;20063;-67
2022/08/27 10:33:14;;;;;;;7.25;2.00;;;;;;;21.70;44.69;101146.56;5043525;28;20063;-66
2022/08/27 10:35:59;;;;;;;4.30;2.00;;;;;;;21.89;43.80;101138.88;5071938;28;20060;-66
2022/08/27 10:38:40;;;;;;;7.75;2.38;;;;;;;22.14;45.02;101134.41;5039910;28;20511;-66
2022/08/27 10:41:53;;;;;;;5.90;2.00;;;;;;;21.93;45.77;101141.75;5038929;28;20056;-65
2022/08/27 10:44:47;;;;;;;7.65;2.28;;;;;;;21.82;44.56;101144.38;5023855;28;20064;-66
2022/08/27 10:47:53;;;;;;;7.05;2.15;;;;;;;21.87;44.27;101134.81;5056856;28;20049;-66
2022/08/27 10:50:27;;;;;;;9.20;2.03;;;;;;;21.99;45.56;101123.38;5054752;28;20057;-66
2022/08/27 10:53:06;;;;;;;7.43;2.83;;;;;;;22.26;46.05;101122.91;5056387;28;20045;-66
2022/08/27 10:55:42;;;;;;;4.45;1.88;;;;;;;22.15;44.11;101124.81;5056847;28;20052;-66
2022/08/27 10:58:18;;;;;;;4.47;1.67;;;;;;;22.26;43.50;101128.53;5039970;28;20056;-66
2022/08/27 11:01:18;;;;;;;4.45;1.80;;;;;;;22.49;42.40;101119.19;5057236;28;20060;-67
2022/08/27 11:04:01;;;;;;;10.95;2.20;;;;;;;22.75;41.97;101105.84;5037670;28;20057;-66
2022/08/27 11:06:36;;;;;;;5.90;1.83;;;;;;;22.06;43.66;101115.88;5075472;28;20052;-66
2022/08/27 11:09:13;;;;;;;10.18;2.15;;;;;;;22.05;44.42;101111.44;5039145;28;20049;-66
2022/08/27 11:11:54;;;;;;;6.80;2.40;;;;;;;22.08;44.97;101115.47;5038773;28;20066;-65
2022/08/27 11:14:51;;;;;;;8.32;2.45;;;;;;;22.25;43.54;101112.91;5042087;28;20060;-66
2022/08/27 11:17:30;;;;;;;6.28;2.03;;;;;;;22.52;42.88;101116.41;5039192;28;20056;-66
2022/08/27 11:20:13;;;;;;;7.25;2.42;;;;;;;22.51;44.64;101094.34;5055180;28;20060;-66
2022/08/27 11:22:49;;;;;;;5.97;2.22;;;;;;;23.01;43.60;101080.41;5041718;28;20045;-67
2022/08/27 11:25:34;;;;;;;11.50;2.50;;;;;;;23.03;42.12;101088.47;5076409;28;20052;-65
2022/08/27 11:28:03;;;;;;;5.72;2.50;;;;;;;23.05;41.94;101092.47;5076203;28;20067;-66
2022/08/27 11:30:33;;;;;;;8.40;2.40;;;;;;;22.94;42.28;101091.59;5076023;28;20052;-66
2022/08/27 11:33:16;;;;;;;7.75;2.28;;;;;;;23.16;42.09;101095.38;5058372;28;20044;-66
2022/08/27 11:36:07;;;;;;;7.97;2.40;;;;;;;23.03;43.26;101071.59;5057972;28;20059;-66
2022/08/27 11:38:51;;;;;;;8.10;2.72;;;;;;;23.05;42.01;101080.44;5058660;28;20048;-66
2022/08/27 11:41:49;;;;;;;8.27;2.55;;;;;;;23.12;43.68;101072.06;5048695;28;20053;-67
2022/08/27 11:44:21;;;;;;;8.05;2.47;;;;;;;23.07;41.83;101064.00;5056366;28;20041;-65
2022/08/27 11:47:09;;;;;;;7.45;2.65;;;;;;;23.20;42.14;101079.38;5054818;28;20507;-66
2022/08/27 11:49:53;;;;;;;11.05;2.55;;;;;;;23.23;40.60;101081.38;5038840;28;20053;-66
2022/08/27 11:52:38;;;;;;;6.75;2.28;;;;;;;23.00;41.20;101090.03;5021489;28;20055;-66